sensor_id;sensor_type;location;lat;lon;timestamp;P1;durP1;ratioP1;P2;durP2;ratioP2
49852;SDS011;35751;48.072;11.688;2023-04-24T00:00:18;2.70;;;1.40;;
49852;SDS011;35751;48.072;11.688;2023-04-24T00:02:43;1.58;;;0.95;;
49852;SDS011;35751;48.072;11.688;2023-04-24T00:05:12;1.75;;;1.00;;
49852;SDS011;35751;48.072;11.688;2023-04-24T00:07:39;2.72;;;1.40;;
49852;SDS011;35751;48.072;11.688;2023-04-24T00:10:06;2.95;;;1.60;;
49852;SDS011;35751;48.072;11.688;2023-04-24T00:12:32;1.20;;;1.10;;
49852;SDS011;35751;48.072;11.688;2023-04-24T00:14:57;6.05;;;1.45;;
49852;SDS011;35751;48.072;11.688;2023-04-24T00:17:23;3.67;;;1.58;;
49852;SDS011;35751;48.072;11.688;2023-04-24T00:19:48;1.85;;;1.23;;
49852;SDS011;35751;48.072;11.688;2023-04-24T00:22:16;1.05;;;0.93;;
49852;SDS011;35751;48.072;11.688;2023-04-24T00:24:41;1.48;;;1.10;;
49852;SDS011;35751;48.072;11.688;2023-04-24T00:27:06;2.22;;;1.10;;
49852;SDS011;35751;48.072;11.688;2023-04-24T00:29:32;1.90;;;1.20;;
49852;SDS011;35751;48.072;11.688;2023-04-24T00:31:57;2.50;;;1.35;;
49852;SDS011;35751;48.072;11.688;2023-04-24T00:34:23;1.42;;;1.17;;
49852;SDS011;35751;48.072;11.688;2023-04-24T00:36:48;1.60;;;1.17;;
49852;SDS011;35751;48.072;11.688;2023-04-24T00:39:20;1.77;;;1.05;;
49852;SDS011;35751;48.072;11.688;2023-04-24T00:41:46;3.05;;;1.85;;
49852;SDS011;35751;48.072;11.688;2023-04-24T00:44:12;1.35;;;0.82;;
49852;SDS011;35751;48.072;11.688;2023-04-24T00:46:37;0.88;;;0.85;;
49852;SDS011;35751;48.072;11.688;2023-04-24T00:49:02;0.93;;;0.80;;
49852;SDS011;35751;48.072;11.688;2023-04-24T00:51:29;1.08;;;0.95;;
49852;SDS011;35751;48.072;11.688;2023-04-24T00:53:55;2.38;;;0.80;;
49852;SDS011;35751;48.072;11.688;2023-04-24T00:56:21;1.67;;;1.08;;
49852;SDS011;35751;48.072;11.688;2023-04-24T00:58:46;0.93;;;0.77;;
49852;SDS011;35751;48.072;11.688;2023-04-24T01:01:12;1.83;;;1.02;;
49852;SDS011;35751;48.072;11.688;2023-04-24T01:03:37;0.70;;;0.70;;
49852;SDS011;35751;48.072;11.688;2023-04-24T01:06:03;1.48;;;0.90;;
49852;SDS011;35751;48.072;11.688;2023-04-24T01:08:29;0.88;;;0.50;;
49852;SDS011;35751;48.072;11.688;2023-04-24T01:10:54;0.63;;;0.63;;
49852;SDS011;35751;48.072;11.688;2023-04-24T01:13:22;0.70;;;0.70;;
49852;SDS011;35751;48.072;11.688;2023-04-24T01:15:47;0.65;;;0.60;;
49852;SDS011;35751;48.072;11.688;2023-04-24T01:18:13;1.25;;;0.80;;
49852;SDS011;35751;48.072;11.688;2023-04-24T01:20:39;0.60;;;0.60;;
49852;SDS011;35751;48.072;11.688;2023-04-24T01:23:06;0.75;;;0.60;;
49852;SDS011;35751;48.072;11.688;2023-04-24T01:25:32;0.70;;;0.70;;
49852;SDS011;35751;48.072;11.688;2023-04-24T01:27:57;1.13;;;0.77;;
49852;SDS011;35751;48.072;11.688;2023-04-24T01:30:24;0.75;;;0.60;;
49852;SDS011;35751;48.072;11.688;2023-04-24T01:32:50;0.77;;;0.50;;
49852;SDS011;35751;48.072;11.688;2023-04-24T01:35:16;0.43;;;0.43;;
49852;SDS011;35751;48.072;11.688;2023-04-24T01:37:41;0.73;;;0.60;;
49852;SDS011;35751;48.072;11.688;2023-04-24T01:40:07;0.45;;;0.40;;
49852;SDS011;35751;48.072;11.688;2023-04-24T01:42:34;0.65;;;0.40;;
49852;SDS011;35751;48.072;11.688;2023-04-24T01:44:59;2.08;;;0.60;;
49852;SDS011;35751;48.072;11.688;2023-04-24T01:47:28;0.73;;;0.55;;
49852;SDS011;35751;48.072;11.688;2023-04-24T01:49:53;0.60;;;0.60;;
49852;SDS011;35751;48.072;11.688;2023-04-24T01:52:19;2.33;;;0.60;;
49852;SDS011;35751;48.072;11.688;2023-04-24T01:54:44;0.40;;;0.40;;
49852;SDS011;35751;48.072;11.688;2023-04-24T01:57:10;0.68;;;0.60;;
49852;SDS011;35751;48.072;11.688;2023-04-24T01:59:35;0.70;;;0.50;;
49852;SDS011;35751;48.072;11.688;2023-04-24T02:02:01;2.83;;;0.60;;
49852;SDS011;35751;48.072;11.688;2023-04-24T02:04:27;0.50;;;0.50;;
49852;SDS011;35751;48.072;11.688;2023-04-24T02:06:53;2.10;;;0.55;;
49852;SDS011;35751;48.072;11.688;2023-04-24T02:09:18;0.40;;;0.40;;
49852;SDS011;35751;48.072;11.688;2023-04-24T02:11:43;0.40;;;0.40;;
49852;SDS011;35751;48.072;11.688;2023-04-24T02:14:09;0.63;;;0.63;;
49852;SDS011;35751;48.072;11.688;2023-04-24T02:16:34;1.08;;;0.70;;
49852;SDS011;35751;48.072;11.688;2023-04-24T02:19:00;0.50;;;0.43;;
49852;SDS011;35751;48.072;11.688;2023-04-24T02:21:26;0.85;;;0.70;;
49852;SDS011;35751;48.072;11.688;2023-04-24T02:23:52;0.60;;;0.52;;
49852;SDS011;35751;48.072;11.688;2023-04-24T02:26:18;0.75;;;0.60;;
49852;SDS011;35751;48.072;11.688;2023-04-24T02:28:43;3.15;;;0.80;;
49852;SDS011;35751;48.072;11.688;2023-04-24T02:31:09;0.93;;;0.40;;
49852;SDS011;35751;48.072;11.688;2023-04-24T02:33:34;0.55;;;0.40;;
49852;SDS011;35751;48.072;11.688;2023-04-24T02:36:00;0.50;;;0.43;;
49852;SDS011;35751;48.072;11.688;2023-04-24T02:38:26;1.85;;;0.43;;
49852;SDS011;35751;48.072;11.688;2023-04-24T02:40:52;0.55;;;0.47;;
49852;SDS011;35751;48.072;11.688;2023-04-24T02:43:17;0.60;;;0.60;;
49852;SDS011;35751;48.072;11.688;2023-04-24T02:45:42;0.73;;;0.50;;
49852;SDS011;35751;48.072;11.688;2023-04-24T02:48:08;1.48;;;0.38;;
49852;SDS011;35751;48.072;11.688;2023-04-24T02:50:33;0.38;;;0.32;;
49852;SDS011;35751;48.072;11.688;2023-04-24T02:52:58;0.73;;;0.47;;
49852;SDS011;35751;48.072;11.688;2023-04-24T02:55:24;0.70;;;0.38;;
49852;SDS011;35751;48.072;11.688;2023-04-24T02:57:50;0.90;;;0.40;;
49852;SDS011;35751;48.072;11.688;2023-04-24T03:00:15;0.43;;;0.43;;
49852;SDS011;35751;48.072;11.688;2023-04-24T03:02:41;0.43;;;0.43;;
49852;SDS011;35751;48.072;11.688;2023-04-24T03:05:06;0.63;;;0.50;;
49852;SDS011;35751;48.072;11.688;2023-04-24T03:07:32;0.95;;;0.85;;
49852;SDS011;35751;48.072;11.688;2023-04-24T03:09:57;0.80;;;0.52;;
49852;SDS011;35751;48.072;11.688;2023-04-24T03:12:23;1.15;;;0.80;;
49852;SDS011;35751;48.072;11.688;2023-04-24T03:14:49;0.93;;;0.50;;
49852;SDS011;35751;48.072;11.688;2023-04-24T03:17:14;0.68;;;0.63;;
49852;SDS011;35751;48.072;11.688;2023-04-24T03:19:39;0.30;;;0.30;;
49852;SDS011;35751;48.072;11.688;2023-04-24T03:22:05;1.58;;;0.60;;
49852;SDS011;35751;48.072;11.688;2023-04-24T03:24:30;1.10;;;0.70;;
49852;SDS011;35751;48.072;11.688;2023-04-24T03:26:55;0.75;;;0.70;;
49852;SDS011;35751;48.072;11.688;2023-04-24T03:29:21;0.73;;;0.55;;
49852;SDS011;35751;48.072;11.688;2023-04-24T03:31:47;0.70;;;0.70;;
49852;SDS011;35751;48.072;11.688;2023-04-24T03:34:12;0.98;;;0.57;;
49852;SDS011;35751;48.072;11.688;2023-04-24T03:36:38;0.50;;;0.50;;
49852;SDS011;35751;48.072;11.688;2023-04-24T03:39:03;0.60;;;0.43;;
49852;SDS011;35751;48.072;11.688;2023-04-24T03:41:28;0.63;;;0.60;;
49852;SDS011;35751;48.072;11.688;2023-04-24T03:43:55;1.85;;;0.73;;
49852;SDS011;35751;48.072;11.688;2023-04-24T03:46:20;1.23;;;0.73;;
49852;SDS011;35751;48.072;11.688;2023-04-24T03:48:46;0.60;;;0.60;;
49852;SDS011;35751;48.072;11.688;2023-04-24T03:51:11;0.93;;;0.77;;
49852;SDS011;35751;48.072;11.688;2023-04-24T03:53:37;0.50;;;0.50;;
49852;SDS011;35751;48.072;11.688;2023-04-24T03:56:02;0.75;;;0.60;;
49852;SDS011;35751;48.072;11.688;2023-04-24T03:58:27;1.27;;;0.80;;
49852;SDS011;35751;48.072;11.688;2023-04-24T04:00:53;0.70;;;0.70;;
49852;SDS011;35751;48.072;11.688;2023-04-24T04:03:18;1.20;;;0.70;;
49852;SDS011;35751;48.072;11.688;2023-04-24T04:05:44;1.10;;;1.02;;
49852;SDS011;35751;48.072;11.688;2023-04-24T04:08:09;0.85;;;0.70;;
49852;SDS011;35751;48.072;11.688;2023-04-24T04:10:35;1.42;;;0.73;;
49852;SDS011;35751;48.072;11.688;2023-04-24T04:13:00;0.50;;;0.50;;
49852;SDS011;35751;48.072;11.688;2023-04-24T04:15:25;0.63;;;0.52;;
49852;SDS011;35751;48.072;11.688;2023-04-24T04:17:51;3.05;;;1.15;;
49852;SDS011;35751;48.072;11.688;2023-04-24T04:20:16;1.17;;;0.80;;
49852;SDS011;35751;48.072;11.688;2023-04-24T04:22:42;0.70;;;0.70;;
49852;SDS011;35751;48.072;11.688;2023-04-24T04:25:07;0.60;;;0.57;;
49852;SDS011;35751;48.072;11.688;2023-04-24T04:27:33;0.90;;;0.80;;
49852;SDS011;35751;48.072;11.688;2023-04-24T04:29:59;1.45;;;0.82;;
49852;SDS011;35751;48.072;11.688;2023-04-24T04:32:32;1.33;;;0.90;;
49852;SDS011;35751;48.072;11.688;2023-04-24T04:34:58;1.10;;;0.75;;
49852;SDS011;35751;48.072;11.688;2023-04-24T04:37:37;1.50;;;0.80;;
49852;SDS011;35751;48.072;11.688;2023-04-24T04:40:03;2.78;;;0.90;;
49852;SDS011;35751;48.072;11.688;2023-04-24T04:42:31;0.90;;;0.70;;
49852;SDS011;35751;48.072;11.688;2023-04-24T04:44:57;0.70;;;0.65;;
49852;SDS011;35751;48.072;11.688;2023-04-24T04:47:23;1.25;;;0.75;;
49852;SDS011;35751;48.072;11.688;2023-04-24T04:49:48;1.33;;;0.75;;
49852;SDS011;35751;48.072;11.688;2023-04-24T04:52:13;0.90;;;0.70;;
49852;SDS011;35751;48.072;11.688;2023-04-24T04:54:39;0.90;;;0.70;;
49852;SDS011;35751;48.072;11.688;2023-04-24T04:57:04;0.70;;;0.57;;
49852;SDS011;35751;48.072;11.688;2023-04-24T04:59:30;3.22;;;0.75;;
49852;SDS011;35751;48.072;11.688;2023-04-24T05:01:56;1.02;;;0.60;;
49852;SDS011;35751;48.072;11.688;2023-04-24T05:04:21;0.63;;;0.55;;
49852;SDS011;35751;48.072;11.688;2023-04-24T05:06:46;0.80;;;0.73;;
49852;SDS011;35751;48.072;11.688;2023-04-24T05:09:12;1.10;;;0.68;;
49852;SDS011;35751;48.072;11.688;2023-04-24T05:11:37;0.52;;;0.50;;
49852;SDS011;35751;48.072;11.688;2023-04-24T05:14:03;0.93;;;0.50;;
49852;SDS011;35751;48.072;11.688;2023-04-24T05:16:28;1.02;;;0.85;;
49852;SDS011;35751;48.072;11.688;2023-04-24T05:18:54;1.60;;;0.70;;
49852;SDS011;35751;48.072;11.688;2023-04-24T05:21:19;1.38;;;0.60;;
49852;SDS011;35751;48.072;11.688;2023-04-24T05:23:45;0.60;;;0.60;;
49852;SDS011;35751;48.072;11.688;2023-04-24T05:26:10;0.63;;;0.63;;
49852;SDS011;35751;48.072;11.688;2023-04-24T05:28:35;0.80;;;0.68;;
49852;SDS011;35751;48.072;11.688;2023-04-24T05:31:01;1.85;;;0.70;;
49852;SDS011;35751;48.072;11.688;2023-04-24T05:33:27;0.85;;;0.55;;
49852;SDS011;35751;48.072;11.688;2023-04-24T05:35:53;1.30;;;0.90;;
49852;SDS011;35751;48.072;11.688;2023-04-24T05:38:18;0.60;;;0.50;;
49852;SDS011;35751;48.072;11.688;2023-04-24T05:40:44;0.65;;;0.63;;
49852;SDS011;35751;48.072;11.688;2023-04-24T05:43:12;0.73;;;0.50;;
49852;SDS011;35751;48.072;11.688;2023-04-24T05:45:38;1.40;;;0.98;;
49852;SDS011;35751;48.072;11.688;2023-04-24T05:48:03;0.70;;;0.70;;
49852;SDS011;35751;48.072;11.688;2023-04-24T05:50:29;1.45;;;1.00;;
49852;SDS011;35751;48.072;11.688;2023-04-24T05:52:55;3.22;;;2.25;;
49852;SDS011;35751;48.072;11.688;2023-04-24T05:55:23;1.13;;;0.75;;
49852;SDS011;35751;48.072;11.688;2023-04-24T05:57:48;1.23;;;0.75;;
49852;SDS011;35751;48.072;11.688;2023-04-24T06:00:13;0.43;;;0.43;;
49852;SDS011;35751;48.072;11.688;2023-04-24T06:02:39;0.47;;;0.40;;
49852;SDS011;35751;48.072;11.688;2023-04-24T06:05:04;0.90;;;0.75;;
49852;SDS011;35751;48.072;11.688;2023-04-24T06:07:30;0.70;;;0.55;;
49852;SDS011;35751;48.072;11.688;2023-04-24T06:09:56;1.23;;;0.60;;
49852;SDS011;35751;48.072;11.688;2023-04-24T06:12:21;0.60;;;0.40;;
49852;SDS011;35751;48.072;11.688;2023-04-24T06:14:47;0.60;;;0.57;;
49852;SDS011;35751;48.072;11.688;2023-04-24T06:17:12;0.68;;;0.40;;
49852;SDS011;35751;48.072;11.688;2023-04-24T06:19:38;0.57;;;0.57;;
49852;SDS011;35751;48.072;11.688;2023-04-24T06:22:03;1.20;;;0.77;;
49852;SDS011;35751;48.072;11.688;2023-04-24T06:24:29;0.68;;;0.52;;
49852;SDS011;35751;48.072;11.688;2023-04-24T06:26:54;0.70;;;0.50;;
49852;SDS011;35751;48.072;11.688;2023-04-24T06:29:21;0.40;;;0.40;;
49852;SDS011;35751;48.072;11.688;2023-04-24T06:31:47;1.45;;;0.70;;
49852;SDS011;35751;48.072;11.688;2023-04-24T06:34:12;1.30;;;0.80;;
49852;SDS011;35751;48.072;11.688;2023-04-24T06:36:37;0.65;;;0.50;;
49852;SDS011;35751;48.072;11.688;2023-04-24T06:39:03;1.65;;;0.73;;
49852;SDS011;35751;48.072;11.688;2023-04-24T06:41:28;1.20;;;0.68;;
49852;SDS011;35751;48.072;11.688;2023-04-24T06:43:54;2.35;;;0.68;;
49852;SDS011;35751;48.072;11.688;2023-04-24T06:46:19;1.02;;;0.60;;
49852;SDS011;35751;48.072;11.688;2023-04-24T06:48:48;1.55;;;0.50;;
49852;SDS011;35751;48.072;11.688;2023-04-24T06:51:13;1.00;;;0.60;;
49852;SDS011;35751;48.072;11.688;2023-04-24T06:53:39;3.25;;;0.60;;
49852;SDS011;35751;48.072;11.688;2023-04-24T06:56:04;0.38;;;0.38;;
49852;SDS011;35751;48.072;11.688;2023-04-24T06:58:30;0.55;;;0.47;;
49852;SDS011;35751;48.072;11.688;2023-04-24T07:00:55;0.45;;;0.40;;
49852;SDS011;35751;48.072;11.688;2023-04-24T07:03:21;1.00;;;0.60;;
49852;SDS011;35751;48.072;11.688;2023-04-24T07:05:46;0.80;;;0.50;;
49852;SDS011;35751;48.072;11.688;2023-04-24T07:08:13;0.57;;;0.57;;
49852;SDS011;35751;48.072;11.688;2023-04-24T07:10:38;3.17;;;0.60;;
49852;SDS011;35751;48.072;11.688;2023-04-24T07:13:04;0.55;;;0.40;;
49852;SDS011;35751;48.072;11.688;2023-04-24T07:15:29;0.47;;;0.30;;
49852;SDS011;35751;48.072;11.688;2023-04-24T07:17:55;0.40;;;0.40;;
49852;SDS011;35751;48.072;11.688;2023-04-24T07:20:20;2.15;;;0.60;;
49852;SDS011;35751;48.072;11.688;2023-04-24T07:22:45;0.60;;;0.50;;
49852;SDS011;35751;48.072;11.688;2023-04-24T07:25:13;0.77;;;0.40;;
49852;SDS011;35751;48.072;11.688;2023-04-24T07:27:38;0.40;;;0.40;;
49852;SDS011;35751;48.072;11.688;2023-04-24T07:30:03;1.13;;;0.60;;
49852;SDS011;35751;48.072;11.688;2023-04-24T07:32:29;0.38;;;0.38;;
49852;SDS011;35751;48.072;11.688;2023-04-24T07:34:55;0.50;;;0.50;;
49852;SDS011;35751;48.072;11.688;2023-04-24T07:37:20;1.40;;;0.40;;
49852;SDS011;35751;48.072;11.688;2023-04-24T07:39:46;3.10;;;0.50;;
49852;SDS011;35751;48.072;11.688;2023-04-24T07:42:11;0.75;;;0.50;;
49852;SDS011;35751;48.072;11.688;2023-04-24T07:44:36;0.40;;;0.40;;
49852;SDS011;35751;48.072;11.688;2023-04-24T07:47:02;0.25;;;0.25;;
49852;SDS011;35751;48.072;11.688;2023-04-24T07:49:27;0.90;;;0.50;;
49852;SDS011;35751;48.072;11.688;2023-04-24T07:51:52;0.20;;;0.20;;
49852;SDS011;35751;48.072;11.688;2023-04-24T07:54:18;0.50;;;0.50;;
49852;SDS011;35751;48.072;11.688;2023-04-24T07:56:43;1.00;;;0.32;;
49852;SDS011;35751;48.072;11.688;2023-04-24T07:59:09;0.45;;;0.40;;
49852;SDS011;35751;48.072;11.688;2023-04-24T08:01:36;1.50;;;0.40;;
49852;SDS011;35751;48.072;11.688;2023-04-24T08:04:01;0.47;;;0.47;;
49852;SDS011;35751;48.072;11.688;2023-04-24T08:06:27;0.90;;;0.50;;
49852;SDS011;35751;48.072;11.688;2023-04-24T08:08:56;0.50;;;0.30;;
49852;SDS011;35751;48.072;11.688;2023-04-24T08:11:22;0.82;;;0.40;;
49852;SDS011;35751;48.072;11.688;2023-04-24T08:13:48;1.38;;;0.45;;
49852;SDS011;35751;48.072;11.688;2023-04-24T08:16:13;0.30;;;0.30;;
49852;SDS011;35751;48.072;11.688;2023-04-24T08:18:38;0.30;;;0.30;;
49852;SDS011;35751;48.072;11.688;2023-04-24T08:21:04;0.55;;;0.40;;
49852;SDS011;35751;48.072;11.688;2023-04-24T08:23:29;0.57;;;0.30;;
49852;SDS011;35751;48.072;11.688;2023-04-24T08:25:55;0.22;;;0.22;;
49852;SDS011;35751;48.072;11.688;2023-04-24T08:28:20;0.30;;;0.30;;
49852;SDS011;35751;48.072;11.688;2023-04-24T08:30:46;1.13;;;0.60;;
49852;SDS011;35751;48.072;11.688;2023-04-24T08:33:19;0.70;;;0.70;;
49852;SDS011;35751;48.072;11.688;2023-04-24T08:35:45;0.45;;;0.35;;
49852;SDS011;35751;48.072;11.688;2023-04-24T08:38:10;0.70;;;0.40;;
49852;SDS011;35751;48.072;11.688;2023-04-24T08:40:36;0.52;;;0.40;;
49852;SDS011;35751;48.072;11.688;2023-04-24T08:43:01;2.40;;;0.30;;
49852;SDS011;35751;48.072;11.688;2023-04-24T08:45:28;0.30;;;0.30;;
49852;SDS011;35751;48.072;11.688;2023-04-24T08:47:54;0.63;;;0.43;;
49852;SDS011;35751;48.072;11.688;2023-04-24T08:50:20;0.40;;;0.40;;
49852;SDS011;35751;48.072;11.688;2023-04-24T08:52:46;2.17;;;0.75;;
49852;SDS011;35751;48.072;11.688;2023-04-24T08:55:12;1.10;;;1.08;;
49852;SDS011;35751;48.072;11.688;2023-04-24T08:57:39;0.70;;;0.70;;
49852;SDS011;35751;48.072;11.688;2023-04-24T09:00:05;0.85;;;0.70;;
49852;SDS011;35751;48.072;11.688;2023-04-24T09:02:31;1.23;;;1.08;;
49852;SDS011;35751;48.072;11.688;2023-04-24T09:04:59;1.98;;;1.40;;
49852;SDS011;35751;48.072;11.688;2023-04-24T09:07:24;6.90;;;2.35;;
49852;SDS011;35751;48.072;11.688;2023-04-24T09:09:52;0.80;;;0.80;;
49852;SDS011;35751;48.072;11.688;2023-04-24T09:12:18;4.60;;;0.98;;
49852;SDS011;35751;48.072;11.688;2023-04-24T09:14:44;1.38;;;0.70;;
49852;SDS011;35751;48.072;11.688;2023-04-24T09:17:10;1.15;;;0.80;;
49852;SDS011;35751;48.072;11.688;2023-04-24T09:19:36;1.48;;;0.77;;
49852;SDS011;35751;48.072;11.688;2023-04-24T09:22:05;1.05;;;0.80;;
49852;SDS011;35751;48.072;11.688;2023-04-24T09:24:31;0.88;;;0.60;;
49852;SDS011;35751;48.072;11.688;2023-04-24T09:26:57;3.70;;;1.10;;
49852;SDS011;35751;48.072;11.688;2023-04-24T09:29:23;2.60;;;0.98;;
49852;SDS011;35751;48.072;11.688;2023-04-24T09:31:49;0.65;;;0.60;;
49852;SDS011;35751;48.072;11.688;2023-04-24T09:34:18;1.98;;;0.80;;
49852;SDS011;35751;48.072;11.688;2023-04-24T09:36:47;1.10;;;0.80;;
49852;SDS011;35751;48.072;11.688;2023-04-24T09:39:14;1.25;;;0.90;;
49852;SDS011;35751;48.072;11.688;2023-04-24T09:41:47;0.95;;;0.77;;
49852;SDS011;35751;48.072;11.688;2023-04-24T09:44:17;0.85;;;0.85;;
49852;SDS011;35751;48.072;11.688;2023-04-24T09:46:44;0.70;;;0.70;;
49852;SDS011;35751;48.072;11.688;2023-04-24T09:49:14;5.35;;;1.10;;
49852;SDS011;35751;48.072;11.688;2023-04-24T09:51:41;1.23;;;1.02;;
49852;SDS011;35751;48.072;11.688;2023-04-24T09:54:13;3.90;;;1.17;;
49852;SDS011;35751;48.072;11.688;2023-04-24T09:56:44;1.00;;;0.90;;
49852;SDS011;35751;48.072;11.688;2023-04-24T09:59:10;1.10;;;1.00;;
49852;SDS011;35751;48.072;11.688;2023-04-24T10:01:36;0.85;;;0.85;;
49852;SDS011;35751;48.072;11.688;2023-04-24T10:04:03;1.67;;;0.90;;
49852;SDS011;35751;48.072;11.688;2023-04-24T10:06:33;1.17;;;0.98;;
49852;SDS011;35751;48.072;11.688;2023-04-24T10:08:59;1.25;;;0.95;;
49852;SDS011;35751;48.072;11.688;2023-04-24T10:11:27;3.60;;;1.20;;
49852;SDS011;35751;48.072;11.688;2023-04-24T10:13:53;1.77;;;0.93;;
49852;SDS011;35751;48.072;11.688;2023-04-24T10:16:18;1.30;;;1.20;;
49852;SDS011;35751;48.072;11.688;2023-04-24T10:18:45;1.00;;;0.88;;
49852;SDS011;35751;48.072;11.688;2023-04-24T10:21:12;2.17;;;1.00;;
49852;SDS011;35751;48.072;11.688;2023-04-24T10:23:37;1.15;;;1.05;;
49852;SDS011;35751;48.072;11.688;2023-04-24T10:26:03;1.20;;;1.10;;
49852;SDS011;35751;48.072;11.688;2023-04-24T10:28:29;1.85;;;1.10;;
49852;SDS011;35751;48.072;11.688;2023-04-24T10:30:56;1.40;;;1.23;;
49852;SDS011;35751;48.072;11.688;2023-04-24T10:33:22;3.85;;;1.00;;
49852;SDS011;35751;48.072;11.688;2023-04-24T10:35:48;2.85;;;1.20;;
49852;SDS011;35751;48.072;11.688;2023-04-24T10:38:21;1.48;;;1.10;;
49852;SDS011;35751;48.072;11.688;2023-04-24T10:40:49;1.33;;;0.98;;
49852;SDS011;35751;48.072;11.688;2023-04-24T10:43:16;1.40;;;1.30;;
49852;SDS011;35751;48.072;11.688;2023-04-24T10:45:42;1.00;;;0.95;;
49852;SDS011;35751;48.072;11.688;2023-04-24T10:48:26;1.10;;;1.05;;
49852;SDS011;35751;48.072;11.688;2023-04-24T10:50:52;2.00;;;1.00;;
49852;SDS011;35751;48.072;11.688;2023-04-24T10:53:18;2.00;;;1.13;;
49852;SDS011;35751;48.072;11.688;2023-04-24T10:58:36;2.97;;;1.00;;
49852;SDS011;35751;48.072;11.688;2023-04-24T11:01:24;2.70;;;1.30;;
49852;SDS011;35751;48.072;11.688;2023-04-24T11:03:50;0.63;;;0.57;;
49852;SDS011;35751;48.072;11.688;2023-04-24T11:06:21;0.60;;;0.60;;
49852;SDS011;35751;48.072;11.688;2023-04-24T11:09:03;0.77;;;0.75;;
49852;SDS011;35751;48.072;11.688;2023-04-24T11:11:32;1.00;;;0.77;;
49852;SDS011;35751;48.072;11.688;2023-04-24T11:16:27;0.65;;;0.60;;
49852;SDS011;35751;48.072;11.688;2023-04-24T11:29:05;1.15;;;0.73;;
49852;SDS011;35751;48.072;11.688;2023-04-24T11:31:39;2.28;;;0.80;;
49852;SDS011;35751;48.072;11.688;2023-04-24T11:34:07;2.60;;;0.80;;
49852;SDS011;35751;48.072;11.688;2023-04-24T11:36:33;0.93;;;0.85;;
49852;SDS011;35751;48.072;11.688;2023-04-24T11:38:59;1.08;;;0.75;;
49852;SDS011;35751;48.072;11.688;2023-04-24T11:41:24;1.13;;;0.82;;
49852;SDS011;35751;48.072;11.688;2023-04-24T11:43:50;0.75;;;0.75;;
49852;SDS011;35751;48.072;11.688;2023-04-24T11:46:17;1.20;;;0.90;;
49852;SDS011;35751;48.072;11.688;2023-04-24T11:48:45;1.55;;;1.02;;
49852;SDS011;35751;48.072;11.688;2023-04-24T11:51:11;1.38;;;1.25;;
49852;SDS011;35751;48.072;11.688;2023-04-24T11:53:37;1.10;;;1.00;;
49852;SDS011;35751;48.072;11.688;2023-04-24T11:56:03;1.30;;;1.20;;
49852;SDS011;35751;48.072;11.688;2023-04-24T11:58:34;2.20;;;0.93;;
49852;SDS011;35751;48.072;11.688;2023-04-24T12:01:00;2.20;;;1.10;;
49852;SDS011;35751;48.072;11.688;2023-04-24T12:03:26;0.98;;;0.80;;
49852;SDS011;35751;48.072;11.688;2023-04-24T12:05:51;1.13;;;1.00;;
49852;SDS011;35751;48.072;11.688;2023-04-24T12:08:29;1.45;;;1.10;;
49852;SDS011;35751;48.072;11.688;2023-04-24T12:10:55;2.47;;;1.23;;
49852;SDS011;35751;48.072;11.688;2023-04-24T12:13:20;1.65;;;1.33;;
49852;SDS011;35751;48.072;11.688;2023-04-24T12:15:46;1.20;;;0.90;;
49852;SDS011;35751;48.072;11.688;2023-04-24T12:18:12;1.10;;;0.88;;
49852;SDS011;35751;48.072;11.688;2023-04-24T12:20:38;4.07;;;1.25;;
49852;SDS011;35751;48.072;11.688;2023-04-24T12:23:05;1.92;;;0.90;;
49852;SDS011;35751;48.072;11.688;2023-04-24T12:25:33;2.17;;;1.17;;
49852;SDS011;35751;48.072;11.688;2023-04-24T12:30:31;3.72;;;1.40;;
49852;SDS011;35751;48.072;11.688;2023-04-24T12:32:58;3.58;;;1.30;;
49852;SDS011;35751;48.072;11.688;2023-04-24T12:35:27;3.15;;;1.60;;
49852;SDS011;35751;48.072;11.688;2023-04-24T12:37:53;3.80;;;1.40;;
49852;SDS011;35751;48.072;11.688;2023-04-24T12:40:19;2.97;;;1.50;;
49852;SDS011;35751;48.072;11.688;2023-04-24T12:42:49;1.83;;;1.45;;
49852;SDS011;35751;48.072;11.688;2023-04-24T12:45:16;2.00;;;1.42;;
49852;SDS011;35751;48.072;11.688;2023-04-24T12:47:43;2.83;;;1.65;;
49852;SDS011;35751;48.072;11.688;2023-04-24T12:50:10;2.15;;;1.70;;
49852;SDS011;35751;48.072;11.688;2023-04-24T12:52:36;1.80;;;1.27;;
49852;SDS011;35751;48.072;11.688;2023-04-24T12:55:02;1.85;;;1.48;;
49852;SDS011;35751;48.072;11.688;2023-04-24T12:57:28;1.55;;;1.45;;
49852;SDS011;35751;48.072;11.688;2023-04-24T12:59:54;2.40;;;1.58;;
49852;SDS011;35751;48.072;11.688;2023-04-24T13:02:21;5.47;;;1.85;;
49852;SDS011;35751;48.072;11.688;2023-04-24T13:04:47;2.03;;;1.50;;
49852;SDS011;35751;48.072;11.688;2023-04-24T13:07:13;7.60;;;1.75;;
49852;SDS011;35751;48.072;11.688;2023-04-24T13:09:39;4.20;;;1.90;;
49852;SDS011;35751;48.072;11.688;2023-04-24T13:12:05;3.00;;;1.80;;
49852;SDS011;35751;48.072;11.688;2023-04-24T13:14:31;2.53;;;1.65;;
49852;SDS011;35751;48.072;11.688;2023-04-24T13:16:56;4.13;;;1.92;;
49852;SDS011;35751;48.072;11.688;2023-04-24T13:19:24;3.85;;;1.90;;
49852;SDS011;35751;48.072;11.688;2023-04-24T13:21:50;2.65;;;1.88;;
49852;SDS011;35751;48.072;11.688;2023-04-24T13:24:15;2.60;;;1.55;;
49852;SDS011;35751;48.072;11.688;2023-04-24T13:26:41;3.50;;;1.50;;
49852;SDS011;35751;48.072;11.688;2023-04-24T13:29:06;3.20;;;1.33;;
49852;SDS011;35751;48.072;11.688;2023-04-24T13:31:31;1.40;;;1.30;;
49852;SDS011;35751;48.072;11.688;2023-04-24T13:33:57;2.33;;;1.75;;
49852;SDS011;35751;48.072;11.688;2023-04-24T13:36:22;1.98;;;1.70;;
49852;SDS011;35751;48.072;11.688;2023-04-24T13:38:48;2.42;;;1.60;;
49852;SDS011;35751;48.072;11.688;2023-04-24T13:41:13;1.95;;;1.38;;
49852;SDS011;35751;48.072;11.688;2023-04-24T13:43:38;1.67;;;1.58;;
49852;SDS011;35751;48.072;11.688;2023-04-24T13:46:03;2.20;;;1.50;;
49852;SDS011;35751;48.072;11.688;2023-04-24T13:48:29;3.88;;;1.27;;
49852;SDS011;35751;48.072;11.688;2023-04-24T13:50:55;4.63;;;1.45;;
49852;SDS011;35751;48.072;11.688;2023-04-24T13:53:20;2.22;;;1.45;;
49852;SDS011;35751;48.072;11.688;2023-04-24T13:55:46;1.48;;;1.38;;
49852;SDS011;35751;48.072;11.688;2023-04-24T13:58:11;2.75;;;1.65;;
49852;SDS011;35751;48.072;11.688;2023-04-24T14:00:36;3.08;;;1.38;;
49852;SDS011;35751;48.072;11.688;2023-04-24T14:03:02;3.30;;;1.50;;
49852;SDS011;35751;48.072;11.688;2023-04-24T14:05:27;1.73;;;1.52;;
49852;SDS011;35751;48.072;11.688;2023-04-24T14:07:52;2.22;;;1.70;;
49852;SDS011;35751;48.072;11.688;2023-04-24T14:10:18;3.40;;;2.33;;
49852;SDS011;35751;48.072;11.688;2023-04-24T14:12:43;5.15;;;1.95;;
49852;SDS011;35751;48.072;11.688;2023-04-24T14:15:08;2.58;;;1.75;;
49852;SDS011;35751;48.072;11.688;2023-04-24T14:17:34;1.60;;;1.48;;
49852;SDS011;35751;48.072;11.688;2023-04-24T14:20:00;2.50;;;1.58;;
49852;SDS011;35751;48.072;11.688;2023-04-24T14:22:25;1.63;;;1.52;;
49852;SDS011;35751;48.072;11.688;2023-04-24T14:24:51;2.28;;;1.40;;
49852;SDS011;35751;48.072;11.688;2023-04-24T14:27:16;3.40;;;1.42;;
49852;SDS011;35751;48.072;11.688;2023-04-24T14:29:41;2.20;;;1.40;;
49852;SDS011;35751;48.072;11.688;2023-04-24T14:32:07;1.90;;;1.42;;
49852;SDS011;35751;48.072;11.688;2023-04-24T14:34:33;1.77;;;1.25;;
49852;SDS011;35751;48.072;11.688;2023-04-24T14:36:59;2.28;;;1.60;;
49852;SDS011;35751;48.072;11.688;2023-04-24T14:39:25;2.78;;;2.55;;
49852;SDS011;35751;48.072;11.688;2023-04-24T14:41:50;1.38;;;1.08;;
49852;SDS011;35751;48.072;11.688;2023-04-24T14:44:15;2.83;;;1.40;;